Time;durP1;ratioP1;P1;durP2;ratioP2;P2;SDS_P1;SDS_P2;PMS_P1;PMS_P2;Temp;Humidity;BMP_temperature;BMP_pressure;BME280_temperature;BME280_humidity;BME280_pressure;Samples;Min_cycle;Max_cycle;Signal;HPM_P1;HPM_P2
2024/03/19 00:04:33;;;;;;;11.82;9.05;;;;;;;13.65;100.00;100852.31;10479503;28;20370;-76
2024/03/19 00:09:55;;;;;;;14.65;10.68;;;;;;;13.64;100.00;100834.59;10450144;28;20052;-76
2024/03/19 00:15:19;;;;;;;9.07;8.15;;;;;;;13.54;100.00;100836.31;10464860;28;20048;-76
2024/03/19 00:20:42;;;;;;;11.07;8.82;;;;;;;13.52;100.00;100849.56;10450879;28;20045;-76
2024/03/19 00:26:05;;;;;;;12.50;9.10;;;;;;;13.55;100.00;100854.00;10464453;28;20114;-76
2024/03/19 00:31:29;;;;;;;9.85;7.90;;;;;;;13.52;100.00;100857.53;10478278;28;20128;-76
2024/03/19 00:36:52;;;;;;;9.95;8.23;;;;;;;13.29;100.00;100855.63;10449048;28;20063;-76
2024/03/19 00:42:14;;;;;;;11.18;8.10;;;;;;;13.14;100.00;100843.16;10449829;28;20555;-76
2024/03/19 00:47:38;;;;;;;12.98;10.77;;;;;;;13.30;100.00;100841.50;10435642;28;20123;-76
2024/03/19 00:53:01;;;;;;;10.02;8.93;;;;;;;13.14;100.00;100832.56;10449320;28;20080;-76
2024/03/19 00:58:23;;;;;;;9.07;8.15;;;;;;;12.87;100.00;100842.94;10462534;28;20056;-77
2024/03/19 01:03:48;;;;;;;10.07;8.68;;;;;;;12.72;100.00;100844.63;10448530;28;20110;-76
2024/03/19 01:09:12;;;;;;;11.48;9.50;;;;;;;12.50;100.00;100828.53;10448490;28;20053;-76
2024/03/19 01:14:35;;;;;;;13.45;8.93;;;;;;;12.51;100.00;100820.59;10448208;28;20106;-76
2024/03/19 01:20:00;;;;;;;10.45;9.45;;;;;;;12.48;100.00;100817.91;10434474;28;20397;-77
2024/03/19 01:25:22;;;;;;;15.70;10.13;;;;;;;12.38;100.00;100824.91;10445379;28;20497;-77
2024/03/19 01:30:45;;;;;;;11.43;9.52;;;;;;;12.52;100.00;100813.53;10461043;28;20045;-76
2024/03/19 01:36:09;;;;;;;9.85;8.18;;;;;;;12.64;100.00;100827.78;10474607;28;20073;-76
2024/03/19 01:41:31;;;;;;;12.38;8.50;;;;;;;12.60;100.00;100823.31;10461329;28;20076;-76
2024/03/19 01:46:54;;;;;;;9.88;8.52;;;;;;;12.56;100.00;100829.47;10434082;28;20122;-76
2024/03/19 01:52:18;;;;;;;10.55;8.82;;;;;;;12.52;100.00;100821.50;10447832;28;20198;-76
2024/03/19 01:57:43;;;;;;;9.55;8.10;;;;;;;12.02;100.00;100818.34;10451092;28;20049;-77
2024/03/19 02:03:06;;;;;;;10.18;8.80;;;;;;;11.99;100.00;100821.84;10428704;28;20467;-76
2024/03/19 02:08:30;;;;;;;11.20;8.55;;;;;;;11.74;100.00;100827.75;10469850;28;20064;-77
2024/03/19 02:13:53;;;;;;;10.05;8.55;;;;;;;11.38;100.00;100834.31;10441671;28;20144;-76
2024/03/19 02:19:15;;;;;;;11.15;10.00;;;;;;;11.34;100.00;100835.13;10454744;28;20063;-76
2024/03/19 02:24:41;;;;;;;13.40;9.30;;;;;;;11.43;100.00;100824.66;10454976;28;20148;-76
2024/03/19 02:30:05;;;;;;;9.43;8.32;;;;;;;11.12;100.00;100826.00;10455003;28;20075;-77
2024/03/19 02:35:28;;;;;;;9.65;8.68;;;;;;;10.97;100.00;100827.53;10454432;28;20075;-76
2024/03/19 02:40:52;;;;;;;9.32;8.32;;;;;;;10.96;100.00;100826.63;10454692;28;20512;-77
2024/03/19 02:46:14;;;;;;;9.48;8.25;;;;;;;10.82;100.00;100832.59;10454851;28;20055;-76
2024/03/19 02:51:36;;;;;;;10.52;9.20;;;;;;;10.74;100.00;100832.47;10446376;28;20095;-77
2024/03/19 02:57:00;;;;;;;9.88;8.38;;;;;;;10.92;100.00;100837.16;10437839;28;20500;-76
2024/03/19 03:02:23;;;;;;;9.98;8.57;;;;;;;10.84;100.00;100838.78;10419899;28;20077;-76
2024/03/19 03:07:45;;;;;;;10.18;8.13;;;;;;;10.77;100.00;100827.22;10452728;28;20048;-76
2024/03/19 03:13:10;;;;;;;9.75;8.00;;;;;;;10.87;100.00;100828.28;10403115;28;20051;-77
2024/03/19 03:18:32;;;;;;;8.80;7.90;;;;;;;10.73;100.00;100835.97;10480467;28;20064;-76
2024/03/19 03:23:55;;;;;;;10.52;8.32;;;;;;;10.45;100.00;100836.38;10439010;28;20041;-76
2024/03/19 03:29:19;;;;;;;10.90;9.48;;;;;;;10.61;100.00;100828.75;10480606;28;20041;-77
2024/03/19 03:34:42;;;;;;;10.23;8.50;;;;;;;10.64;100.00;100835.81;10438817;28;20067;-76
2024/03/19 03:40:12;;;;;;;9.60;8.60;;;;;;;10.68;100.00;100833.28;10452002;28;20049;-76
2024/03/19 03:45:37;;;;;;;9.27;8.32;;;;;;;10.36;100.00;100822.19;10451530;28;20055;-77
2024/03/19 03:51:00;;;;;;;8.80;7.90;;;;;;;10.37;100.00;100833.63;10452655;28;20047;-77
2024/03/19 03:56:22;;;;;;;8.88;7.97;;;;;;;10.32;100.00;100836.16;10451709;28;20527;-77
2024/03/19 04:01:46;;;;;;;14.02;9.95;;;;;;;10.38;100.00;100832.75;10450036;28;20044;-76
2024/03/19 04:07:09;;;;;;;11.82;10.63;;;;;;;10.32;100.00;100832.63;10430011;28;20099;-76
2024/03/19 04:12:32;;;;;;;9.20;8.30;;;;;;;10.31;100.00;100838.75;10437054;28;20055;-76
2024/03/19 04:17:56;;;;;;;8.90;7.15;;;;;;;10.49;100.00;100832.94;10443044;28;20102;-76
2024/03/19 04:23:19;;;;;;;10.35;8.05;;;;;;;10.49;100.00;100819.75;10460976;28;20057;-77
2024/03/19 04:28:41;;;;;;;10.68;8.52;;;;;;;10.53;100.00;100819.81;10445914;28;20119;-77
2024/03/19 04:34:05;;;;;;;10.93;8.65;;;;;;;10.39;100.00;100813.41;10457809;28;20140;-77
2024/03/19 04:39:28;;;;;;;10.80;9.30;;;;;;;10.36;100.00;100822.19;10449096;28;20079;-76
2024/03/19 04:44:50;;;;;;;17.05;12.75;;;;;;;10.58;100.00;100835.72;10449563;28;20157;-77
2024/03/19 04:50:14;;;;;;;10.30;7.60;;;;;;;12.46;100.00;100827.63;10449205;28;20067;-76
2024/03/19 04:55:37;;;;;;;16.00;10.52;;;;;;;14.20;100.00;100830.34;10463505;28;20045;-76
2024/03/19 05:00:59;;;;;;;7.15;6.45;;;;;;;15.33;100.00;100814.38;10446697;28;20680;-77
2024/03/19 05:06:23;;;;;;;13.90;9.23;;;;;;;16.21;100.00;100833.50;10476470;28;20056;-77
2024/03/19 05:11:46;;;;;;;8.43;7.63;;;;;;;17.28;100.00;100827.28;10462379;28;20049;-76
2024/03/19 05:17:08;;;;;;;7.53;6.35;;;;;;;18.61;89.97;100832.69;10440402;28;20493;-77
2024/03/19 05:22:32;;;;;;;6.22;5.40;;;;;;;19.63;73.94;100825.47;10447693;28;20044;-77
2024/03/19 05:27:55;;;;;;;6.45;5.28;;;;;;;20.41;67.53;100830.94;10448011;28;20048;-77
2024/03/19 05:33:17;;;;;;;9.73;8.48;;;;;;;21.07;63.41;100832.81;10460865;28;20042;-77
2024/03/19 05:38:42;;;;;;;10.98;6.07;;;;;;;22.55;56.10;100838.34;10461195;28;20049;-77
2024/03/19 05:44:05;;;;;;;9.10;5.93;;;;;;;23.15;51.73;100834.56;10447986;28;20048;-78
2024/03/19 05:49:27;;;;;;;5.40;4.90;;;;;;;23.82;48.94;100835.72;10476095;28;20056;-77
2024/03/19 05:54:51;;;;;;;6.82;4.82;;;;;;;24.65;46.58;100838.75;10433819;28;20086;-77
2024/03/19 06:00:21;;;;;;;5.43;4.45;;;;;;;23.74;48.83;100850.41;10446010;28;20053;-77
2024/03/19 06:05:43;;;;;;;7.60;6.22;;;;;;;25.58;44.63;100842.88;10470693;28;20057;-77
2024/03/19 06:11:08;;;;;;;6.30;4.53;;;;;;;25.92;42.85;100842.22;10434020;28;20083;-77
2024/03/19 06:16:31;;;;;;;5.35;4.05;;;;;;;26.75;41.28;100840.88;10460262;28;20074;-78
2024/03/19 06:21:53;;;;;;;7.90;6.28;;;;;;;28.29;39.15;100844.44;10446304;28;20060;-78
2024/03/19 06:27:17;;;;;;;5.93;4.82;;;;;;;29.31;37.36;100852.06;10446547;28;20370;-78
2024/03/19 06:32:40;;;;;;;5.82;4.20;;;;;;;30.91;34.83;100850.88;10438342;28;20045;-78
2024/03/19 06:38:03;;;;;;;8.25;6.32;;;;;;;31.66;33.79;100857.53;10445792;28;20053;-79
2024/03/19 06:43:28;;;;;;;5.43;4.00;;;;;;;31.31;33.84;100859.94;10449892;28;20095;-78
2024/03/19 06:48:50;;;;;;;6.70;4.97;;;;;;;31.97;33.39;100850.75;10440098;28;20053;-77
2024/03/19 06:54:13;;;;;;;6.35;4.68;;;;;;;31.77;32.71;100851.31;10441963;28;20053;-77
2024/03/19 06:59:37;;;;;;;7.65;6.13;;;;;;;32.82;31.75;100860.91;10453776;28;20599;-79
2024/03/19 07:04:59;;;;;;;5.03;3.38;;;;;;;32.53;30.86;100856.69;10440199;28;20056;-80
2024/03/19 07:10:24;;;;;;;7.35;3.42;;;;;;;32.77;30.45;100861.22;10453548;28;20059;-78
2024/03/19 07:15:50;;;;;;;5.43;3.33;;;;;;;33.17;29.78;100855.44;10441043;28;20155;-78
2024/03/19 07:21:13;;;;;;;3.47;3.03;;;;;;;32.32;30.26;100867.34;10452765;28;20056;-78
2024/03/19 07:26:36;;;;;;;4.55;3.40;;;;;;;34.07;28.35;100868.38;10453379;28;20057;-78
2024/03/19 07:32:02;;;;;;;4.28;3.40;;;;;;;34.20;27.74;100862.81;10452926;28;20075;-77
2024/03/19 07:37:25;;;;;;;4.75;3.28;;;;;;;34.88;27.04;100854.38;10448731;28;20059;-79
2024/03/19 07:42:50;;;;;;;7.38;4.88;;;;;;;34.16;27.94;100859.44;10444300;28;20048;-76
2024/03/19 07:48:15;;;;;;;9.25;4.43;;;;;;;33.82;27.43;100868.63;10433186;28;20075;-77
2024/03/19 07:53:38;;;;;;;4.72;3.70;;;;;;;30.31;32.33;100874.88;10446311;28;20511;-77
2024/03/19 07:59:00;;;;;;;6.80;3.80;;;;;;;30.47;32.21;100872.88;10437143;28;20148;-76
2024/03/19 08:04:24;;;;;;;7.47;3.55;;;;;;;29.52;33.76;100871.69;10443292;28;20059;-77
2024/03/19 08:09:48;;;;;;;8.40;4.80;;;;;;;30.63;32.66;100873.66;10474235;28;20048;-77
2024/03/19 08:15:12;;;;;;;8.77;6.30;;;;;;;32.16;30.78;100870.34;10463472;28;20049;-77
2024/03/19 08:20:37;;;;;;;5.60;3.72;;;;;;;33.74;28.25;100871.97;10413234;28;20057;-78
2024/03/19 08:25:59;;;;;;;7.97;2.80;;;;;;;32.19;30.38;100875.56;10433552;28;20048;-80
2024/03/19 08:31:22;;;;;;;6.18;3.13;;;;;;;31.73;30.71;100877.09;10448791;28;20073;-79
2024/03/19 08:36:46;;;;;;;4.63;3.38;;;;;;;30.19;32.97;100881.97;10448969;28;20053;-76
2024/03/19 08:42:08;;;;;;;6.38;4.05;;;;;;;29.10;34.92;100869.66;10465183;28;20063;-77
2024/03/19 08:47:31;;;;;;;4.50;3.28;;;;;;;28.57;36.44;100864.63;10448071;28;20489;-76
2024/03/19 08:52:55;;;;;;;8.93;3.92;;;;;;;28.22;37.12;100874.78;10434997;28;20144;-77
2024/03/19 08:58:18;;;;;;;5.45;3.15;;;;;;;27.17;39.44;100867.69;10468920;28;20056;-77
2024/03/19 09:03:40;;;;;;;5.85;3.92;;;;;;;25.99;42.23;100874.31;10448065;28;20053;-77
2024/03/19 09:09:04;;;;;;;9.88;4.25;;;;;;;25.86;43.82;100873.16;10470886;28;20068;-77
2024/03/19 09:14:27;;;;;;;5.18;3.35;;;;;;;26.92;42.39;100883.41;10418368;28;20045;-77
2024/03/19 09:19:49;;;;;;;5.57;3.60;;;;;;;29.37;37.99;100878.03;10417510;28;20057;-77
2024/03/19 09:25:13;;;;;;;6.82;3.85;;;;;;;32.35;32.04;100859.81;10442727;28;20052;-77
2024/03/19 09:30:36;;;;;;;8.95;3.72;;;;;;;31.71;32.66;100862.66;10474025;28;20568;-77
2024/03/19 09:35:58;;;;;;;6.60;3.58;;;;;;;31.24;32.81;100870.41;10423918;28;20528;-78
2024/03/19 09:41:25;;;;;;;5.45;3.45;;;;;;;29.02;35.62;100851.09;10439995;28;20144;-78
2024/03/19 09:46:47;;;;;;;8.30;4.13;;;;;;;30.54;34.75;100851.56;10448470;28;20140;-77
2024/03/19 09:52:10;;;;;;;6.32;3.72;;;;;;;30.74;34.12;100862.91;10435145;28;20048;-78
2024/03/19 09:57:34;;;;;;;6.47;3.63;;;;;;;29.68;34.92;100856.13;10459497;28;20048;-78
2024/03/19 10:02:57;;;;;;;5.35;3.78;;;;;;;30.35;35.05;100857.31;10433489;28;20049;-78
2024/03/19 10:08:19;;;;;;;6.97;3.75;;;;;;;31.22;33.85;100872.41;10477361;28;20061;-78
2024/03/19 10:13:43;;;;;;;4.32;3.20;;;;;;;30.67;34.54;100860.69;10447756;28;20045;-78
2024/03/19 10:19:06;;;;;;;6.35;3.63;;;;;;;30.75;34.75;100850.16;10451686;28;20045;-78
2024/03/19 10:24:28;;;;;;;6.22;3.42;;;;;;;29.75;36.67;100854.78;10469296;28;20430;-78
2024/03/19 10:29:52;;;;;;;7.82;3.55;;;;;;;29.08;37.68;100848.00;10471573;28;20060;-78
2024/03/19 10:35:19;;;;;;;10.90;4.82;;;;;;;28.85;38.54;100838.50;10455023;28;20488;-77
2024/03/19 10:40:42;;;;;;;6.47;3.60;;;;;;;29.76;37.90;100842.94;10453976;28;20129;-77
2024/03/19 10:46:07;;;;;;;6.57;4.13;;;;;;;31.04;34.99;100837.28;10449275;28;20037;-77
2024/03/19 10:51:30;;;;;;;5.95;3.15;;;;;;;31.67;34.13;100841.03;10424306;28;20057;-78
2024/03/19 10:56:53;;;;;;;6.32;3.28;;;;;;;31.22;34.42;100834.19;10440713;28;20095;-79
2024/03/19 11:02:19;;;;;;;8.45;3.53;;;;;;;30.63;34.46;100850.97;10453566;28;20107;-78
2024/03/19 11:07:46;;;;;;;7.18;3.10;;;;;;;29.33;36.63;100841.97;10453921;28;20063;-78
2024/03/19 11:13:10;;;;;;;7.75;4.30;;;;;;;28.14;38.91;100835.34;10482806;28;20052;-78
2024/03/19 11:18:34;;;;;;;9.32;4.30;;;;;;;27.34;40.06;100837.84;10453180;28;20056;-78
2024/03/19 11:23:57;;;;;;;6.38;3.85;;;;;;;26.33;42.87;100824.91;10451744;28;20059;-78
2024/03/19 11:29:21;;;;;;;7.30;3.70;;;;;;;25.68;45.13;100827.97;10452275;28;20060;-77
2024/03/19 11:34:51;;;;;;;10.18;4.30;;;;;;;25.11;48.31;100812.53;10454231;28;20044;-78
2024/03/19 11:40:16;;;;;;;7.35;5.10;;;;;;;25.01;51.30;100818.31;10452982;28;20060;-78
2024/03/19 11:45:41;;;;;;;5.88;4.50;;;;;;;24.72;51.79;100813.25;10426444;28;20065;-79
2024/03/19 11:51:08;;;;;;;10.48;4.57;;;;;;;24.50;54.24;100815.06;10446160;28;20152;-80
2024/03/19 11:56:33;;;;;;;7.88;3.40;;;;;;;24.23;53.82;100817.06;10452638;28;20052;-79
2024/03/19 12:02:02;;;;;;;7.90;3.60;;;;;;;23.51;56.42;100813.50;10452275;28;20053;-80
2024/03/19 12:07:30;;;;;;;6.18;2.97;;;;;;;23.70;59.07;100801.09;10452846;28;20136;-84
2024/03/19 12:12:54;;;;;;;12.60;3.33;;;;;;;23.78;57.00;100800.81;10442360;28;20060;-78
2024/03/19 12:18:18;;;;;;;7.22;2.95;;;;;;;23.91;55.76;100796.72;10451649;28;20048;-81
2024/03/19 12:23:42;;;;;;;5.70;3.00;;;;;;;23.88;55.08;100799.53;10480338;28;20055;-78
2024/03/19 12:29:06;;;;;;;6.13;3.08;;;;;;;23.64;56.01;100782.47;10441607;28;20535;-80
2024/03/19 12:34:58;;;;;;;5.30;3.08;;;;;;;23.45;56.31;100793.03;10411166;28;20478;-78
2024/03/19 12:40:25;;;;;;;5.45;3.03;;;;;;;23.73;56.49;100789.34;10441484;28;20045;-79
2024/03/19 12:45:48;;;;;;;9.65;3.20;;;;;;;23.88;55.74;100788.75;10440127;28;20044;-79
2024/03/19 12:51:11;;;;;;;7.47;2.97;;;;;;;23.92;56.30;100781.41;10451555;28;20136;-78
2024/03/19 12:56:35;;;;;;;9.43;3.00;;;;;;;23.89;58.76;100785.13;10421380;28;20044;-79
2024/03/19 13:01:57;;;;;;;5.88;2.97;;;;;;;23.75;60.66;100779.38;10438942;28;20464;-81
2024/03/19 13:07:20;;;;;;;8.35;3.38;;;;;;;23.69;64.10;100774.22;10449249;28;20045;-79
2024/03/19 13:12:44;;;;;;;8.90;2.50;;;;;;;23.68;63.84;100783.25;10449244;28;20053;-79
2024/03/19 13:18:07;;;;;;;7.28;2.58;;;;;;;23.58;58.87;100777.31;10449378;28;20049;-79
2024/03/19 13:23:30;;;;;;;6.22;2.50;;;;;;;23.38;58.13;100779.84;10464317;28;20488;-79
2024/03/19 13:28:55;;;;;;;17.80;10.75;;;;;;;23.31;57.44;100779.19;10434979;28;20045;-84
2024/03/19 13:34:17;;;;;;;21.48;11.85;;;;;;;23.17;58.57;100781.50;10447599;28;20045;-83
2024/03/19 13:39:40;;;;;;;21.73;10.65;;;;;;;23.18;58.78;100782.38;10478902;28;20073;-81
2024/03/19 13:45:07;;;;;;;18.05;7.72;;;;;;;23.48;57.96;100775.03;10463760;28;20161;-84
2024/03/19 13:50:30;;;;;;;8.73;4.10;;;;;;;23.89;56.87;100762.66;10428498;28;20048;-81
2024/03/19 13:55:53;;;;;;;14.85;8.30;;;;;;;24.13;54.60;100764.38;10401940;28;20049;-79
2024/03/19 14:01:17;;;;;;;14.63;7.70;;;;;;;24.03;55.41;100771.06;10443261;28;20560;-79
2024/03/19 14:06:40;;;;;;;11.40;6.28;;;;;;;23.97;55.16;100771.31;10468901;28;20111;-79
2024/03/19 14:12:02;;;;;;;11.98;6.30;;;;;;;23.15;57.69;100780.69;10461077;28;20555;-81
2024/03/19 14:17:27;;;;;;;13.00;4.93;;;;;;;22.65;60.57;100768.94;10471099;28;20053;-80
2024/03/19 14:22:51;;;;;;;10.05;4.20;;;;;;;22.73;62.51;100772.28;10410927;28;20053;-80
2024/03/19 14:28:13;;;;;;;7.63;4.35;;;;;;;22.44;64.23;100775.94;10454370;28;20056;-80
2024/03/19 14:33:37;;;;;;;8.05;3.15;;;;;;;22.44;66.17;100769.69;10454811;28;20068;-82
2024/03/19 14:39:00;;;;;;;9.43;2.90;;;;;;;22.75;67.14;100778.50;10436200;28;20050;-86
2024/03/19 14:44:23;;;;;;;11.23;3.88;;;;;;;22.84;68.75;100771.94;10441039;28;20048;-77
2024/03/19 14:49:47;;;;;;;7.13;3.28;;;;;;;22.93;69.56;100780.56;10454847;28;20064;-78
2024/03/19 14:55:13;;;;;;;9.65;3.17;;;;;;;22.58;72.58;100788.91;10458271;28;20045;-81
2024/03/19 15:00:36;;;;;;;4.38;2.55;;;;;;;22.22;76.83;100797.28;10452584;28;20496;-81
2024/03/19 15:06:00;;;;;;;9.75;3.60;;;;;;;21.73;81.18;100787.09;10457964;28;20048;-77
2024/03/19 15:11:22;;;;;;;9.63;3.38;;;;;;;21.25;85.19;100801.97;10455356;28;20041;-83
2024/03/19 15:16:45;;;;;;;9.10;5.13;;;;;;;21.01;88.74;100790.03;10432888;28;20056;-78
2024/03/19 15:22:09;;;;;;;7.93;3.30;;;;;;;21.02;91.02;100806.09;10450509;28;20528;-80
2024/03/19 15:27:31;;;;;;;6.78;2.75;;;;;;;21.31;88.92;100812.53;10455026;28;20056;-79
2024/03/19 15:32:54;;;;;;;11.63;3.22;;;;;;;21.38;90.29;100809.63;10440380;28;20539;-81
2024/03/19 15:38:21;;;;;;;11.63;3.08;;;;;;;21.16;94.50;100805.75;10453675;28;20056;-79
2024/03/19 15:43:43;;;;;;;9.27;3.20;;;;;;;20.69;99.04;100804.28;10453998;28;20045;-78
2024/03/19 15:49:06;;;;;;;10.43;3.20;;;;;;;20.35;100.00;100820.31;10468225;28;20348;-78
2024/03/19 15:54:30;;;;;;;9.32;3.13;;;;;;;20.02;100.00;100816.56;10439541;28;20048;-79
2024/03/19 15:59:52;;;;;;;11.23;3.53;;;;;;;19.68;100.00;100819.13;10438139;28;20068;-80
2024/03/19 16:05:16;;;;;;;7.95;3.65;;;;;;;19.56;100.00;100813.16;10414654;28;20722;-78
2024/03/19 16:10:40;;;;;;;9.00;3.20;;;;;;;19.34;100.00;100821.56;10445943;28;20036;-78
2024/03/19 16:16:03;;;;;;;7.55;3.05;;;;;;;19.13;100.00;100823.75;10462219;28;20525;-81
2024/03/19 16:21:25;;;;;;;10.70;3.60;;;;;;;18.98;100.00;100820.44;10430694;28;20048;-82
2024/03/19 16:26:49;;;;;;;12.85;5.60;;;;;;;18.78;100.00;100829.72;10420339;28;20052;-80
2024/03/19 16:32:13;;;;;;;12.40;5.05;;;;;;;18.43;100.00;100832.94;10442909;28;20140;-80
2024/03/19 16:37:38;;;;;;;16.20;4.65;;;;;;;18.16;100.00;100842.25;10413114;28;20045;-80
2024/03/19 16:43:02;;;;;;;10.25;3.65;;;;;;;18.11;100.00;100831.63;10451129;28;20045;-84
2024/03/19 16:48:27;;;;;;;20.45;9.10;;;;;;;17.93;100.00;100834.53;10465316;28;20428;-79
2024/03/19 16:53:50;;;;;;;18.23;6.13;;;;;;;17.79;100.00;100823.16;10449879;28;20049;-83
2024/03/19 16:59:14;;;;;;;46.03;20.90;;;;;;;17.84;100.00;100830.22;10471341;28;20056;-79
2024/03/19 17:04:37;;;;;;;19.80;7.47;;;;;;;17.90;100.00;100845.28;10444492;28;20060;-79
2024/03/19 17:10:00;;;;;;;12.65;4.75;;;;;;;17.94;100.00;100833.63;10445781;28;20133;-78
2024/03/19 17:15:26;;;;;;;14.38;5.60;;;;;;;17.85;100.00;100834.63;10436234;28;20248;-80
2024/03/19 17:20:50;;;;;;;10.25;5.55;;;;;;;18.03;100.00;100828.19;10435251;28;20409;-79
2024/03/19 17:26:15;;;;;;;15.48;10.23;;;;;;;18.11;100.00;100842.31;10436045;28;20204;-79
2024/03/19 17:31:40;;;;;;;17.92;6.28;;;;;;;18.13;100.00;100836.94;10409311;28;20131;-80
2024/03/19 17:37:03;;;;;;;12.55;5.47;;;;;;;17.99;100.00;100853.16;10408880;28;20053;-79
2024/03/19 17:42:26;;;;;;;14.68;6.00;;;;;;;18.09;100.00;100853.94;10400038;28;20095;-79
2024/03/19 17:47:50;;;;;;;18.52;8.65;;;;;;;18.19;100.00;100861.78;10447642;28;20432;-79
2024/03/19 17:53:14;;;;;;;11.00;4.78;;;;;;;18.19;100.00;100856.44;10462334;28;20041;-79
2024/03/19 17:58:37;;;;;;;17.65;8.48;;;;;;;18.22;100.00;100867.09;10433910;28;20051;-79
2024/03/19 18:04:01;;;;;;;17.55;7.97;;;;;;;18.30;100.00;100875.91;10449098;28;20048;-79
2024/03/19 18:09:24;;;;;;;14.75;7.82;;;;;;;18.46;100.00;100881.88;10442917;28;20045;-79
2024/03/19 18:14:47;;;;;;;22.35;8.38;;;;;;;18.48;100.00;100881.88;10447869;28;20107;-79
2024/03/19 18:20:14;;;;;;;16.52;8.45;;;;;;;18.40;100.00;100884.66;10428505;28;20091;-79
2024/03/19 18:25:37;;;;;;;12.13;4.43;;;;;;;18.42;100.00;100885.53;10442591;28;20060;-82
2024/03/19 18:31:00;;;;;;;13.30;5.03;;;;;;;18.48;100.00;100884.53;10436735;28;20524;-81
2024/03/19 18:36:24;;;;;;;12.82;4.78;;;;;;;18.43;100.00;100881.06;10444202;28;20055;-80
2024/03/19 18:41:46;;;;;;;15.90;6.20;;;;;;;18.40;100.00;100881.09;10456966;28;20057;-79
2024/03/19 18:47:09;;;;;;;18.83;6.55;;;;;;;18.18;100.00;100883.22;10403484;28;20049;-82
2024/03/19 18:52:34;;;;;;;11.85;3.80;;;;;;;18.01;100.00;100885.19;10454738;28;20369;-82
2024/03/19 18:57:58;;;;;;;11.30;4.95;;;;;;;17.93;100.00;100882.63;10445408;28;20060;-79
2024/03/19 19:03:20;;;;;;;12.90;4.90;;;;;;;17.59;100.00;100879.41;10443808;28;20045;-82
2024/03/19 19:08:44;;;;;;;11.23;4.65;;;;;;;17.17;100.00;100887.88;10445011;28;20076;-82
2024/03/19 19:14:08;;;;;;;16.58;4.65;;;;;;;17.10;100.00;100895.06;10454442;28;20048;-83
2024/03/19 19:19:30;;;;;;;11.63;4.20;;;;;;;17.08;100.00;100891.50;10457113;28;20416;-83
2024/03/19 19:24:54;;;;;;;15.90;5.05;;;;;;;17.22;100.00;100894.06;10458534;28;20052;-82
2024/03/19 19:30:17;;;;;;;21.08;6.70;;;;;;;17.34;100.00;100896.59;10445556;28;20457;-84
2024/03/19 19:35:40;;;;;;;16.05;7.25;;;;;;;17.56;100.00;100881.25;10460885;28;20138;-78
2024/03/19 19:41:07;;;;;;;25.10;12.27;;;;;;;17.54;100.00;100886.59;10455074;28;20052;-80
2024/03/19 19:46:29;;;;;;;17.33;7.57;;;;;;;17.40;100.00;100889.41;10451183;28;20060;-82
2024/03/19 19:51:52;;;;;;;13.40;4.50;;;;;;;17.34;100.00;100900.16;10439665;28;20049;-82
2024/03/19 19:57:17;;;;;;;16.40;5.22;;;;;;;17.12;100.00;100888.81;10432779;28;20139;-85
2024/03/19 20:02:39;;;;;;;14.75;4.20;;;;;;;17.16;100.00;100891.44;10454548;28;20067;-86
2024/03/19 20:08:02;;;;;;;10.48;3.65;;;;;;;17.42;100.00;100897.41;10455848;28;20056;-86
2024/03/19 20:13:26;;;;;;;38.40;23.45;;;;;;;17.68;100.00;100900.72;10455312;28;20049;-83
2024/03/19 20:18:51;;;;;;;19.05;6.50;;;;;;;17.57;100.00;100891.03;10455079;28;20060;-81
2024/03/19 20:24:15;;;;;;;12.32;5.40;;;;;;;17.46;100.00;100880.47;10451101;28;20076;-82
2024/03/19 20:29:39;;;;;;;12.57;5.70;;;;;;;17.39;100.00;100884.13;10468601;28;20136;-81
2024/03/19 20:35:02;;;;;;;18.35;5.93;;;;;;;17.41;100.00;100876.97;10452834;28;20040;-81
2024/03/19 20:40:25;;;;;;;21.63;14.27;;;;;;;17.49;100.00;100870.66;10451893;28;20071;-81
2024/03/19 20:45:49;;;;;;;16.05;11.52;;;;;;;17.41;100.00;100872.50;10451884;28;20056;-81
2024/03/19 20:51:12;;;;;;;21.00;13.90;;;;;;;17.32;100.00;100869.97;10450462;28;20160;-80
2024/03/19 20:56:34;;;;;;;19.48;9.05;;;;;;;17.32;100.00;100872.63;10436106;28;20519;-80
2024/03/19 21:01:59;;;;;;;27.00;15.75;;;;;;;17.28;100.00;100859.31;10448870;28;20544;-79
2024/03/19 21:07:21;;;;;;;16.58;5.82;;;;;;;17.08;100.00;100849.72;10450464;28;20492;-79
2024/03/19 21:12:44;;;;;;;12.45;4.65;;;;;;;16.71;100.00;100848.28;10448521;28;20691;-79
2024/03/19 21:18:08;;;;;;;30.38;15.80;;;;;;;16.46;100.00;100846.69;10440286;28;20060;-82
2024/03/19 21:23:31;;;;;;;29.67;17.75;;;;;;;16.28;100.00;100861.88;10425520;28;20063;-80
2024/03/19 21:28:53;;;;;;;17.15;7.57;;;;;;;16.15;100.00;100860.16;10475035;28;20049;-81
2024/03/19 21:34:17;;;;;;;19.13;5.88;;;;;;;15.66;100.00;100861.31;10447862;28;20033;-80
2024/03/19 21:39:40;;;;;;;16.58;11.23;;;;;;;15.32;100.00;100868.47;10456317;28;20067;-79
2024/03/19 21:45:02;;;;;;;18.83;7.22;;;;;;;15.15;100.00;100874.72;10421798;28;20049;-79
2024/03/19 21:50:26;;;;;;;19.02;7.70;;;;;;;14.99;100.00;100880.91;10458323;28;20055;-77
2024/03/19 21:55:49;;;;;;;14.40;6.18;;;;;;;15.07;100.00;100867.63;10414935;28;20055;-77
2024/03/19 22:01:12;;;;;;;14.65;4.85;;;;;;;15.09;100.00;100866.75;10433739;28;20106;-78
2024/03/19 22:06:36;;;;;;;15.15;5.00;;;;;;;15.03;100.00;100866.72;10437930;28;20041;-78
2024/03/19 22:11:58;;;;;;;19.65;6.18;;;;;;;15.08;100.00;100867.63;10447760;28;20159;-79
2024/03/19 22:17:21;;;;;;;10.13;5.05;;;;;;;15.01;100.00;100852.56;10442434;28;20106;-79
2024/03/19 22:22:45;;;;;;;11.48;5.20;;;;;;;14.94;100.00;100856.13;10455552;28;20098;-78
2024/03/19 22:28:07;;;;;;;14.98;4.85;;;;;;;14.86;100.00;100863.19;10442822;28;20076;-79
2024/03/19 22:33:30;;;;;;;13.45;4.90;;;;;;;14.61;100.00;100869.41;10471023;28;20493;-79
2024/03/19 22:39:03;;;;;;;10.70;4.72;;;;;;;14.38;100.00;100860.50;10432172;28;20049;-79
2024/03/19 22:44:26;;;;;;;14.63;4.50;;;;;;;14.23;100.00;100867.53;10430607;28;20063;-79
2024/03/19 22:49:49;;;;;;;13.15;4.38;;;;;;;14.19;100.00;100855.13;10428668;28;20048;-78
2024/03/19 22:55:13;;;;;;;9.35;4.70;;;;;;;14.21;100.00;100852.47;10454088;28;20404;-78
2024/03/19 23:00:38;;;;;;;10.68;4.22;;;;;;;14.22;100.00;100836.56;10428923;28;20057;-78
2024/03/19 23:06:01;;;;;;;11.50;4.15;;;;;;;14.10;100.00;100828.56;10437416;28;20135;-78
2024/03/19 23:11:26;;;;;;;13.77;4.85;;;;;;;14.11;100.00;100830.31;10472100;28;20449;-78
2024/03/19 23:16:49;;;;;;;11.80;7.18;;;;;;;14.13;100.00;100835.63;10471109;28;20053;-77
2024/03/19 23:22:12;;;;;;;11.45;4.63;;;;;;;13.91;100.00;100824.94;10453835;28;20052;-78
2024/03/19 23:27:37;;;;;;;11.00;5.18;;;;;;;13.78;100.00;100830.25;10439598;28;20385;-78
2024/03/19 23:33:00;;;;;;;15.68;6.22;;;;;;;13.69;100.00;100823.13;10439735;28;20606;-78
2024/03/19 23:38:25;;;;;;;10.52;5.10;;;;;;;13.50;100.00;100819.53;10453311;28;20126;-78
2024/03/19 23:43:49;;;;;;;9.75;5.40;;;;;;;13.40;100.00;100807.06;10466816;28;20501;-78
2024/03/19 23:49:13;;;;;;;12.00;4.68;;;;;;;13.43;100.00;100806.22;10467614;28;20053;-78
2024/03/19 23:54:36;;;;;;;14.27;4.90;;;;;;;13.53;100.00;100811.56;10453701;28;20045;-78
